Time;durP1;ratioP1;P1;durP2;ratioP2;P2;SDS_P1;SDS_P2;PMS_P1;PMS_P2;Temp;Humidity;BMP_temperature;BMP_pressure;BME280_temperature;BME280_humidity;BME280_pressure;Samples;Min_cycle;Max_cycle;Signal;HPM_P1;HPM_P2
2022/01/06 00:01:54;;;;;;;0.40;0.40;;;;;;;12.98;35.74;97188.84;5075382;28;20055;-69
2022/01/06 00:04:19;;;;;;;0.70;0.70;;;;;;;12.76;35.64;97148.69;5075146;28;20044;-69
2022/01/06 00:06:54;;;;;;;0.60;0.60;;;;;;;13.05;35.62;97208.25;5076559;28;20050;-68
2022/01/06 00:09:21;;;;;;;0.93;0.93;;;;;;;12.88;35.42;97164.66;5075092;28;20052;-67
2022/01/06 00:11:47;;;;;;;1.10;1.03;;;;;;;13.20;35.52;97204.06;5091711;28;20420;-68
2022/01/06 00:14:35;;;;;;;0.50;0.50;;;;;;;13.14;35.38;97197.00;5075005;28;20055;-68
2022/01/06 00:17:18;;;;;;;0.40;0.40;;;;;;;13.12;35.19;97179.63;5078106;28;20412;-69
2022/01/06 00:25:13;;;;;;;0.70;0.70;;;;;;;13.03;35.19;97165.84;5091621;28;20047;-69
2022/01/06 00:27:38;;;;;;;0.70;0.70;;;;;;;13.23;35.68;97200.13;5092605;28;20036;-70
2022/01/06 00:30:05;;;;;;;0.70;0.70;;;;;;;13.45;35.21;97199.25;5041143;28;20087;-69
2022/01/06 00:32:33;;;;;;;0.60;0.60;;;;;;;13.25;35.10;97196.16;5074783;28;20047;-69
2022/01/06 00:34:58;;;;;;;2.00;1.00;;;;;;;12.94;35.24;97156.56;5092412;28;20037;-69
2022/01/06 00:37:24;;;;;;;0.83;0.83;;;;;;;13.30;35.35;97214.13;5091481;28;20040;-70
2022/01/06 00:39:50;;;;;;;1.50;1.20;;;;;;;13.05;35.21;97182.41;5107977;28;20142;-68
2022/01/06 00:42:16;;;;;;;0.60;0.60;;;;;;;13.36;35.18;97211.34;5074212;28;20039;-70
2022/01/06 00:44:42;;;;;;;0.70;0.70;;;;;;;13.48;35.09;97214.78;5091180;28;20519;-67
2022/01/06 00:47:08;;;;;;;0.80;0.80;;;;;;;13.33;35.17;97206.47;5074000;28;20044;-69
2022/01/06 00:49:34;;;;;;;4.70;1.23;;;;;;;13.24;35.29;97204.38;5090929;28;20093;-70
2022/01/06 00:52:00;;;;;;;1.00;0.87;;;;;;;13.14;35.21;97175.69;5090746;28;20047;-70
2022/01/06 00:54:25;;;;;;;0.60;0.60;;;;;;;13.35;35.29;97225.72;5074193;28;20146;-71
2022/01/06 00:56:51;;;;;;;2.40;1.10;;;;;;;13.37;35.35;97222.81;5091098;28;20415;-71
2022/01/06 00:59:17;;;;;;;0.70;0.70;;;;;;;13.44;35.04;97220.81;5090008;28;20055;-70
2022/01/06 01:01:43;;;;;;;0.93;0.77;;;;;;;13.41;35.34;97214.13;5090558;28;20036;-71
2022/01/06 01:04:08;;;;;;;3.80;1.63;;;;;;;13.39;35.06;97207.41;5091863;28;20498;-70
2022/01/06 01:06:34;;;;;;;1.00;0.60;;;;;;;13.48;34.92;97222.00;5091903;28;20114;-72
2022/01/06 01:09:00;;;;;;;1.73;0.80;;;;;;;13.47;34.92;97215.84;5091648;28;20052;-72
2022/01/06 01:11:26;;;;;;;0.40;0.40;;;;;;;13.50;35.13;97210.03;5092022;28;20055;-70
2022/01/06 01:13:56;;;;;;;1.80;0.87;;;;;;;13.48;35.04;97214.78;5090154;28;20134;-69
2022/01/06 01:16:27;;;;;;;1.00;0.90;;;;;;;13.94;34.79;97224.53;5090735;28;20036;-70
2022/01/06 01:18:56;;;;;;;1.40;0.77;;;;;;;13.53;34.84;97220.22;5073666;28;20047;-73
2022/01/06 01:21:26;;;;;;;1.37;0.63;;;;;;;13.63;34.89;97219.63;5090597;28;20126;-71
2022/01/06 01:23:53;;;;;;;2.13;1.17;;;;;;;13.72;35.08;97220.06;5090404;28;20044;-71
2022/01/06 01:26:19;;;;;;;2.70;1.10;;;;;;;13.39;35.22;97208.19;5090154;28;20079;-71
2022/01/06 01:28:46;;;;;;;4.10;1.47;;;;;;;13.42;35.24;97215.72;5056684;28;20079;-72
2022/01/06 01:33:44;;;;;;;2.33;1.07;;;;;;;13.47;35.44;97215.03;5090177;28;20055;-72
2022/01/06 01:36:10;;;;;;;6.43;1.60;;;;;;;13.57;35.16;97210.75;5091164;28;20036;-71
2022/01/06 01:38:37;;;;;;;2.40;1.00;;;;;;;13.43;35.16;97187.22;5073321;28;20098;-72
2022/01/06 01:41:04;;;;;;;9.40;2.03;;;;;;;13.72;35.19;97206.72;5089903;28;20123;-71
2022/01/06 01:43:30;;;;;;;2.97;1.13;;;;;;;13.52;35.08;97207.13;5090302;28;20098;-71
2022/01/06 01:45:58;;;;;;;0.70;0.60;;;;;;;13.45;35.05;97214.47;5073399;28;20534;-71
2022/01/06 01:48:33;;;;;;;8.60;1.73;;;;;;;13.92;34.99;97221.28;5091130;28;20066;-71
2022/01/06 01:50:58;;;;;;;5.47;1.47;;;;;;;13.43;35.00;97216.53;5091437;28;20048;-71
2022/01/06 01:53:24;;;;;;;12.80;2.00;;;;;;;13.26;35.08;97192.47;5091018;28;20044;-71
2022/01/06 01:55:51;;;;;;;9.30;1.83;;;;;;;13.65;34.84;97174.88;5089773;28;20522;-72
2022/01/06 01:58:18;;;;;;;4.40;1.57;;;;;;;13.70;35.03;97212.31;5089806;28;20044;-72
2022/01/06 02:00:43;;;;;;;5.33;1.47;;;;;;;13.45;34.89;97209.91;5056147;28;20036;-71
2022/01/06 02:03:09;;;;;;;5.63;1.40;;;;;;;13.57;34.94;97218.72;5091021;28;20047;-73
2022/01/06 02:05:35;;;;;;;2.87;0.90;;;;;;;13.56;34.85;97216.31;5090970;28;20119;-73
2022/01/06 02:08:02;;;;;;;18.23;2.60;;;;;;;13.72;34.68;97191.53;5072921;28;20040;-72
2022/01/06 02:10:29;;;;;;;6.13;1.47;;;;;;;13.73;34.58;97195.81;5089177;28;20059;-74
2022/01/06 02:12:57;;;;;;;4.93;1.80;;;;;;;13.47;34.64;97183.84;5072613;28;20158;-73
2022/01/06 02:15:23;;;;;;;6.70;2.00;;;;;;;13.78;34.73;97227.16;5089411;28;20510;-72
2022/01/06 02:17:51;;;;;;;10.83;2.60;;;;;;;13.62;34.80;97220.69;5089293;28;20047;-72
2022/01/06 02:20:19;;;;;;;5.40;1.37;;;;;;;14.01;34.75;97219.06;5089589;28;20035;-73
2022/01/06 02:22:45;;;;;;;20.67;3.10;;;;;;;13.66;34.74;97213.81;5089659;28;20476;-73
2022/01/06 02:25:26;;;;;;;2.70;1.70;;;;;;;14.10;34.22;97221.09;5089543;28;20048;-72
2022/01/06 02:27:53;;;;;;;5.88;2.30;;;;;;;13.67;34.66;97219.97;5089644;28;20044;-73
2022/01/06 02:30:21;;;;;;;11.53;2.13;;;;;;;13.81;34.83;97222.13;5089812;28;20075;-74
2022/01/06 02:32:47;;;;;;;14.53;2.60;;;;;;;13.58;34.80;97219.53;5089669;28;20051;-73
2022/01/06 02:35:21;;;;;;;13.33;2.23;;;;;;;13.94;34.79;97221.06;5090963;28;20040;-73
2022/01/06 02:37:48;;;;;;;13.03;2.43;;;;;;;13.75;34.82;97223.06;5056379;28;20055;-74
2022/01/06 02:40:21;;;;;;;18.63;3.13;;;;;;;14.11;34.37;97227.25;5072685;28;20384;-73
2022/01/06 02:42:53;;;;;;;13.43;2.30;;;;;;;14.10;34.33;97230.97;5072700;28;20046;-73
2022/01/06 02:45:20;;;;;;;12.40;2.57;;;;;;;13.58;34.65;97195.53;5089424;28;20132;-74
2022/01/06 02:47:47;;;;;;;12.23;1.77;;;;;;;13.53;34.74;97196.22;5072368;28;20071;-73
2022/01/06 02:50:14;;;;;;;13.60;2.70;;;;;;;13.77;34.81;97238.84;5090501;28;20127;-75
2022/01/06 02:52:40;;;;;;;9.80;2.13;;;;;;;13.48;34.97;97238.00;5089179;28;20067;-74
2022/01/06 02:55:08;;;;;;;24.03;3.50;;;;;;;13.95;34.68;97241.34;5089119;28;20082;-75
2022/01/06 02:57:34;;;;;;;19.60;2.87;;;;;;;13.53;34.73;97249.56;5089798;28;20063;-75
2022/01/06 03:00:00;;;;;;;22.80;3.63;;;;;;;13.64;34.67;97242.59;5090978;28;20492;-75
2022/01/06 03:02:28;;;;;;;17.63;3.33;;;;;;;13.45;34.83;97238.47;5089238;28;20036;-74
2022/01/06 03:04:54;;;;;;;18.17;2.60;;;;;;;13.38;35.08;97235.09;5089396;28;20097;-75
2022/01/06 03:07:19;;;;;;;15.40;2.90;;;;;;;13.46;34.74;97230.22;5089407;28;20111;-76
2022/01/06 03:09:52;;;;;;;15.00;3.20;;;;;;;13.36;35.05;97245.19;5089273;28;20135;-75
2022/01/06 03:12:24;;;;;;;16.47;3.07;;;;;;;13.22;35.18;97223.28;5090610;28;20502;-74
2022/01/06 03:14:49;;;;;;;18.23;3.60;;;;;;;13.34;35.00;97236.63;5090416;28;20044;-73
2022/01/06 03:17:15;;;;;;;19.03;3.90;;;;;;;13.49;34.96;97240.44;5089365;28;20059;-74
2022/01/06 03:19:42;;;;;;;24.27;4.00;;;;;;;13.69;35.03;97244.53;5089509;28;20040;-74
2022/01/06 03:22:08;;;;;;;20.63;4.03;;;;;;;13.35;34.93;97233.72;5089600;28;20039;-74
2022/01/06 03:24:33;;;;;;;17.00;4.07;;;;;;;13.15;35.11;97216.44;5076606;28;20357;-75
2022/01/06 03:26:59;;;;;;;5.80;1.83;;;;;;;12.97;35.40;97198.72;5094166;28;20488;-76
2022/01/06 03:29:25;;;;;;;12.53;3.00;;;;;;;13.27;35.25;97230.56;5094024;28;20079;-76
2022/01/06 03:31:51;;;;;;;17.13;2.57;;;;;;;13.35;35.25;97241.72;5075832;28;20458;-76
2022/01/06 03:34:17;;;;;;;19.83;3.77;;;;;;;13.47;35.05;97247.84;5093993;28;20046;-77
2022/01/06 03:36:43;;;;;;;16.17;3.73;;;;;;;13.51;35.10;97246.31;5093967;28;20134;-76
2022/01/06 03:39:09;;;;;;;11.90;3.17;;;;;;;13.42;35.17;97241.59;5092783;28;20360;-76
2022/01/06 03:41:34;;;;;;;24.47;5.07;;;;;;;13.34;35.20;97231.28;5092866;28;20055;-78
2022/01/06 03:44:00;;;;;;;11.33;2.50;;;;;;;13.43;35.06;97243.22;5093740;28;20128;-77
2022/01/06 03:46:26;;;;;;;32.73;5.43;;;;;;;13.55;35.05;97238.66;5092317;28;20189;-77
2022/01/06 03:48:52;;;;;;;33.07;5.73;;;;;;;13.36;35.03;97235.31;5092734;28;20467;-77
2022/01/06 03:51:20;;;;;;;43.33;6.43;;;;;;;13.50;35.10;97242.03;5092820;28;20044;-78
2022/01/06 03:53:47;;;;;;;21.73;4.53;;;;;;;13.85;34.96;97233.16;5093649;28;20423;-77
2022/01/06 03:56:13;;;;;;;33.27;6.17;;;;;;;13.48;35.06;97206.78;5093214;28;20516;-75
2022/01/06 03:58:40;;;;;;;36.57;6.63;;;;;;;13.29;34.98;97199.19;5092541;28;20130;-75
2022/01/06 04:01:07;;;;;;;30.50;5.07;;;;;;;13.68;34.92;97225.09;5094590;28;20044;-75
2022/01/06 04:03:33;;;;;;;32.30;7.47;;;;;;;13.45;35.16;97217.91;5059597;28;20040;-75
2022/01/06 04:05:58;;;;;;;40.47;7.20;;;;;;;13.57;34.92;97231.25;5076058;28;20179;-74
2022/01/06 04:08:24;;;;;;;32.00;6.20;;;;;;;13.50;34.80;97236.69;5093797;28;20039;-74
2022/01/06 04:10:50;;;;;;;25.87;5.43;;;;;;;13.35;34.90;97239.03;5092624;28;20503;-75
2022/01/06 04:13:15;;;;;;;36.50;7.23;;;;;;;13.40;35.08;97233.00;5092541;28;20055;-74
2022/01/06 04:15:43;;;;;;;39.57;6.83;;;;;;;13.45;35.24;97241.91;5091949;28;20134;-74
2022/01/06 04:18:09;;;;;;;40.13;8.23;;;;;;;13.38;35.04;97243.91;5091659;28;20043;-74
2022/01/06 04:20:35;;;;;;;29.03;7.13;;;;;;;13.48;34.86;97238.78;5091744;28;20384;-74
2022/01/06 04:23:00;;;;;;;34.03;7.43;;;;;;;13.52;34.87;97245.28;5091383;28;20086;-74
2022/01/06 04:25:26;;;;;;;48.00;9.00;;;;;;;13.47;35.00;97237.16;5091378;28;20090;-74
2022/01/06 04:27:52;;;;;;;35.13;6.90;;;;;;;13.41;34.91;97246.09;5041313;28;20047;-74
2022/01/06 04:30:17;;;;;;;39.13;9.03;;;;;;;13.36;34.97;97246.00;5057985;28;20410;-73
2022/01/06 04:32:43;;;;;;;42.47;8.27;;;;;;;13.38;35.09;97241.25;5057471;28;20437;-73
2022/01/06 04:35:12;;;;;;;26.43;5.70;;;;;;;13.39;35.07;97237.53;5091098;28;20043;-74
2022/01/06 04:37:38;;;;;;;24.70;5.57;;;;;;;13.52;34.98;97239.13;5091544;28;20074;-73
2022/01/06 04:40:08;;;;;;;33.40;7.23;;;;;;;13.81;34.65;97230.13;5057465;28;20044;-73
2022/01/06 04:42:34;;;;;;;40.37;6.87;;;;;;;13.49;35.30;97256.41;5090884;28;20392;-72
2022/01/06 04:45:00;;;;;;;42.87;7.77;;;;;;;13.28;35.31;97237.56;5090876;28;20040;-73
2022/01/06 04:47:25;;;;;;;35.60;7.03;;;;;;;13.42;35.22;97246.94;5090947;28;20047;-73
2022/01/06 04:49:51;;;;;;;23.73;4.50;;;;;;;13.45;35.25;97257.13;5090915;28;20048;-73
2022/01/06 04:52:17;;;;;;;27.03;5.03;;;;;;;13.63;35.24;97256.16;5092171;28;20131;-73
2022/01/06 04:54:43;;;;;;;28.87;5.27;;;;;;;13.65;35.10;97248.75;5073980;28;20123;-73
2022/01/06 04:57:08;;;;;;;29.37;6.07;;;;;;;13.79;34.80;97258.09;5091169;28;20043;-74
2022/01/06 04:59:34;;;;;;;31.17;5.80;;;;;;;13.58;34.67;97243.53;5092075;28;20523;-74
2022/01/06 05:02:00;;;;;;;30.13;4.70;;;;;;;13.74;34.67;97271.31;5091899;28;20047;-73
2022/01/06 05:04:26;;;;;;;26.30;4.43;;;;;;;13.71;34.61;97259.28;5091919;28;20047;-73
2022/01/06 05:06:52;;;;;;;22.43;3.83;;;;;;;13.79;34.49;97274.94;5090577;28;20123;-73
2022/01/06 05:09:18;;;;;;;25.43;4.73;;;;;;;13.96;34.49;97272.34;5090531;28;20044;-72
2022/01/06 05:11:43;;;;;;;24.43;3.93;;;;;;;13.84;34.35;97285.69;5090484;28;20138;-71
2022/01/06 05:14:09;;;;;;;27.97;4.40;;;;;;;13.83;34.24;97277.91;5107341;28;20177;-72
2022/01/06 05:16:38;;;;;;;23.80;4.20;;;;;;;13.87;34.50;97284.41;5090500;28;20059;-73
2022/01/06 05:19:03;;;;;;;28.53;4.63;;;;;;;13.83;34.45;97277.91;5107214;28;20468;-71
2022/01/06 05:21:31;;;;;;;33.40;5.37;;;;;;;13.61;34.53;97248.38;5090206;28;20460;-71
2022/01/06 05:23:57;;;;;;;32.90;5.80;;;;;;;13.71;34.26;97267.28;5090105;28;20071;-71
2022/01/06 05:26:23;;;;;;;31.97;5.33;;;;;;;13.70;34.12;97251.53;5090175;28;20489;-72
2022/01/06 05:28:49;;;;;;;29.60;5.53;;;;;;;14.09;34.27;97288.06;5091341;28;20054;-72
2022/01/06 05:31:15;;;;;;;25.77;5.67;;;;;;;13.92;34.22;97285.31;5090077;28;20054;-72
2022/01/06 05:33:41;;;;;;;21.30;4.43;;;;;;;13.88;33.96;97280.69;5090242;28;20043;-72
2022/01/06 05:36:07;;;;;;;14.10;4.70;;;;;;;13.92;33.85;97285.31;5091063;28;20093;-71
2022/01/06 05:38:33;;;;;;;12.77;3.80;;;;;;;13.94;33.71;97298.44;5089747;28;20048;-71
2022/01/06 05:40:58;;;;;;;20.83;5.40;;;;;;;13.94;33.76;97280.56;5089727;28;20040;-71
2022/01/06 05:43:25;;;;;;;17.07;4.23;;;;;;;13.89;33.44;97277.78;5072994;28;20491;-71
2022/01/06 05:45:53;;;;;;;17.77;4.27;;;;;;;13.99;33.38;97287.88;5072788;28;20040;-72
2022/01/06 05:48:19;;;;;;;36.63;7.13;;;;;;;13.54;33.41;97240.53;5073573;28;20525;-72
2022/01/06 05:50:48;;;;;;;31.03;6.43;;;;;;;13.55;33.24;97292.81;5089746;28;20044;-69
2022/01/06 05:53:17;;;;;;;17.77;5.60;;;;;;;14.18;33.52;97283.97;5091042;28;20385;-70
2022/01/06 05:55:43;;;;;;;31.27;6.57;;;;;;;13.64;33.63;97279.91;5089941;28;20130;-70
2022/01/06 05:58:09;;;;;;;40.13;8.83;;;;;;;13.77;33.30;97287.69;5056070;28;20139;-70
2022/01/06 06:00:35;;;;;;;38.80;8.90;;;;;;;13.49;33.44;97293.75;5089533;28;20056;-71
2022/01/06 06:03:02;;;;;;;45.77;9.03;;;;;;;13.53;33.82;97286.91;5090983;28;20165;-70
2022/01/06 06:05:27;;;;;;;39.70;9.00;;;;;;;13.30;33.64;97284.25;5089654;28;20048;-70
2022/01/06 06:07:53;;;;;;;50.43;9.70;;;;;;;13.33;34.16;97281.13;5089704;28;20463;-71
2022/01/06 06:10:19;;;;;;;52.27;11.10;;;;;;;13.37;34.09;97297.47;5090608;28;20101;-70
2022/01/06 06:12:45;;;;;;;54.53;10.80;;;;;;;13.25;33.90;97273.47;5055961;28;20491;-72
2022/01/06 06:15:10;;;;;;;72.77;12.57;;;;;;;13.33;34.13;97283.00;5089107;28;20040;-71
2022/01/06 06:17:36;;;;;;;62.23;11.47;;;;;;;13.20;33.52;97283.19;5090571;28;20083;-71
2022/01/06 06:20:03;;;;;;;42.03;9.83;;;;;;;13.55;34.07;97278.66;5089177;28;20048;-72
2022/01/06 06:22:29;;;;;;;48.10;11.43;;;;;;;12.88;33.87;97237.41;5056285;28;20040;-71
2022/01/06 06:24:54;;;;;;;35.60;10.23;;;;;;;12.96;33.84;97285.00;5073103;28;20522;-72
2022/01/06 06:27:20;;;;;;;40.63;10.27;;;;;;;12.97;33.93;97275.97;5089594;28;20102;-71
2022/01/06 06:29:46;;;;;;;28.57;9.07;;;;;;;12.76;34.34;97273.84;5089536;28;20427;-72
2022/01/06 06:32:11;;;;;;;23.97;9.07;;;;;;;13.03;34.35;97275.09;5072197;28;20040;-72
2022/01/06 06:34:37;;;;;;;14.40;7.20;;;;;;;12.94;34.34;97273.78;5055691;28;20052;-73
2022/01/06 06:37:03;;;;;;;18.50;7.67;;;;;;;13.38;34.16;97259.91;5090411;28;20036;-72
2022/01/06 06:39:29;;;;;;;26.20;7.50;;;;;;;13.23;34.31;97272.06;5072825;28;20043;-74
2022/01/06 06:41:55;;;;;;;15.80;7.97;;;;;;;13.21;33.97;97264.31;5089562;28;20407;-72
2022/01/06 06:44:20;;;;;;;14.47;6.87;;;;;;;13.18;34.32;97264.78;5105931;28;20574;-74
2022/01/06 06:46:46;;;;;;;15.57;6.97;;;;;;;13.39;33.88;97263.41;5039244;28;20059;-71
2022/01/06 06:49:15;;;;;;;20.87;7.93;;;;;;;13.37;33.72;97273.47;5072877;28;20422;-72
2022/01/06 06:51:40;;;;;;;18.03;7.70;;;;;;;13.48;33.92;97268.09;5072085;28;20119;-72
2022/01/06 06:54:06;;;;;;;17.00;6.53;;;;;;;13.49;33.77;97268.94;5055383;28;20101;-72
2022/01/06 06:56:32;;;;;;;19.07;7.27;;;;;;;13.40;33.57;97270.34;5089367;28;20097;-72
2022/01/06 06:58:58;;;;;;;11.90;6.37;;;;;;;13.27;34.02;97270.56;5076315;28;20040;-71
2022/01/06 07:01:26;;;;;;;17.63;7.20;;;;;;;13.68;33.89;97270.44;5076412;28;20497;-72
2022/01/06 07:03:52;;;;;;;22.50;9.23;;;;;;;13.03;34.53;97267.09;5094223;28;20519;-73
2022/01/06 07:06:17;;;;;;;10.97;6.70;;;;;;;12.93;34.76;97263.34;5059595;28;20044;-72
2022/01/06 07:08:43;;;;;;;13.63;6.93;;;;;;;13.00;34.51;97270.22;5092989;28;20074;-71
2022/01/06 07:11:09;;;;;;;15.27;7.00;;;;;;;13.29;33.99;97268.47;5092691;28;20044;-72
2022/01/06 07:13:37;;;;;;;14.73;8.23;;;;;;;13.26;33.81;97267.09;5109760;28;20121;-72
2022/01/06 07:16:03;;;;;;;13.10;7.80;;;;;;;13.29;33.91;97266.63;5092643;28;20036;-72
2022/01/06 07:18:29;;;;;;;17.43;7.67;;;;;;;13.19;34.09;97271.72;5076166;28;20495;-72
2022/01/06 07:20:55;;;;;;;18.33;7.97;;;;;;;13.17;33.98;97268.50;5092929;28;20047;-72
2022/01/06 07:23:21;;;;;;;18.47;9.17;;;;;;;13.14;34.30;97271.63;5058933;28;20039;-72
2022/01/06 07:25:46;;;;;;;22.10;10.53;;;;;;;13.00;34.08;97262.22;5092979;28;20036;-71
2022/01/06 07:28:12;;;;;;;24.00;10.63;;;;;;;13.09;33.93;97266.16;5075680;28;20571;-71
2022/01/06 07:30:38;;;;;;;30.87;10.47;;;;;;;13.00;34.18;97266.75;5075444;28;20071;-72
2022/01/06 07:33:03;;;;;;;21.40;11.63;;;;;;;12.86;34.22;97234.16;5075653;28;20076;-71
2022/01/06 07:35:29;;;;;;;17.93;10.07;;;;;;;13.07;34.03;97281.56;5058908;28;20036;-71
2022/01/06 07:37:55;;;;;;;20.40;10.20;;;;;;;12.97;34.33;97275.97;5059271;28;20052;-72
2022/01/06 07:40:21;;;;;;;16.47;10.03;;;;;;;12.95;34.45;97272.72;5058869;28;20040;-72
2022/01/06 07:42:48;;;;;;;25.70;11.20;;;;;;;13.34;34.05;97274.75;5058948;28;20047;-72
2022/01/06 07:45:14;;;;;;;24.87;12.27;;;;;;;12.91;34.15;97281.41;5075443;28;20134;-72
2022/01/06 07:47:54;;;;;;;25.23;12.80;;;;;;;12.74;34.30;97253.81;5042712;28;20040;-72
2022/01/06 07:50:22;;;;;;;29.63;13.70;;;;;;;13.18;34.17;97280.78;5061052;28;20104;-73
2022/01/06 07:52:48;;;;;;;26.87;12.47;;;;;;;12.92;34.65;97280.34;5058792;28;20055;-72
2022/01/06 07:55:13;;;;;;;27.13;13.70;;;;;;;12.85;34.85;97264.50;5075464;28;20416;-72
2022/01/06 07:57:39;;;;;;;23.17;11.97;;;;;;;12.82;34.57;97262.28;5042217;28;20526;-72
2022/01/06 08:00:06;;;;;;;25.27;11.73;;;;;;;13.05;34.35;97267.66;5092137;28;20050;-71
2022/01/06 08:02:38;;;;;;;21.47;10.53;;;;;;;12.83;34.46;97263.91;5076256;28;20043;-72
2022/01/06 08:05:04;;;;;;;19.80;9.83;;;;;;;12.92;34.48;97257.19;5058417;28;20051;-72
2022/01/06 08:07:30;;;;;;;23.77;10.90;;;;;;;12.65;34.71;97215.25;5093211;28;20047;-72
2022/01/06 08:09:56;;;;;;;25.67;10.70;;;;;;;12.95;34.48;97256.75;5091660;28;20423;-73
2022/01/06 08:12:21;;;;;;;24.50;11.30;;;;;;;13.12;34.33;97249.72;5041928;28;20161;-72
2022/01/06 08:14:47;;;;;;;22.00;10.73;;;;;;;13.05;34.13;97249.00;5092283;28;20059;-73
2022/01/06 08:17:13;;;;;;;21.77;10.80;;;;;;;12.95;34.49;97243.44;5041579;28;20435;-73
2022/01/06 08:19:39;;;;;;;25.57;10.67;;;;;;;12.79;34.58;97245.97;5091553;28;20040;-72
2022/01/06 08:22:05;;;;;;;20.23;11.33;;;;;;;13.04;34.69;97252.72;5074798;28;20032;-72
2022/01/06 08:24:30;;;;;;;30.23;11.47;;;;;;;12.65;34.67;97201.94;5091643;28;20040;-72
2022/01/06 08:26:56;;;;;;;28.20;12.60;;;;;;;12.88;34.93;97232.09;5091528;28;20120;-73
2022/01/06 08:29:22;;;;;;;24.03;11.43;;;;;;;12.93;34.66;97242.84;5041402;28;20031;-72
2022/01/06 08:31:48;;;;;;;27.30;11.90;;;;;;;12.89;34.61;97244.34;5092636;28;20040;-72
2022/01/06 08:34:13;;;;;;;20.37;10.70;;;;;;;12.69;34.46;97219.06;5091196;28;20124;-72
2022/01/06 08:36:39;;;;;;;25.63;11.47;;;;;;;12.97;34.57;97267.16;5057806;28;20044;-72
2022/01/06 08:39:05;;;;;;;30.37;11.03;;;;;;;12.93;34.83;97245.50;5074437;28;20071;-72
2022/01/06 08:41:31;;;;;;;27.80;12.93;;;;;;;13.25;34.53;97252.13;5074425;28;20089;-71
2022/01/06 08:43:57;;;;;;;28.77;13.30;;;;;;;12.97;34.51;97251.19;5057706;28;20070;-72
2022/01/06 08:46:23;;;;;;;21.10;9.60;;;;;;;12.97;34.84;97253.84;5041265;28;20035;-71
2022/01/06 08:48:48;;;;;;;23.77;12.33;;;;;;;12.84;34.54;97244.22;5041200;28;20040;-71
2022/01/06 08:51:14;;;;;;;22.00;11.13;;;;;;;12.81;34.94;97246.53;5074443;28;20529;-71
2022/01/06 08:53:40;;;;;;;21.63;11.40;;;;;;;12.70;35.16;97245.47;5091597;28;20575;-71
2022/01/06 08:56:06;;;;;;;22.37;11.90;;;;;;;12.75;34.79;97234.94;5057727;28;20104;-72
2022/01/06 08:58:31;;;;;;;29.30;12.03;;;;;;;12.72;34.97;97239.91;5092144;28;20032;-72
2022/01/06 09:00:57;;;;;;;23.77;11.33;;;;;;;12.65;35.05;97234.72;5040974;28;20040;-72
2022/01/06 09:03:23;;;;;;;23.50;10.97;;;;;;;12.79;34.70;97249.41;5040933;28;20044;-71
2022/01/06 09:05:49;;;;;;;25.23;11.43;;;;;;;12.75;35.06;97234.94;5057112;28;20058;-72
2022/01/06 09:08:14;;;;;;;24.37;10.93;;;;;;;13.04;34.71;97246.56;5057482;28;20522;-71
2022/01/06 09:10:40;;;;;;;21.97;10.73;;;;;;;13.05;34.71;97240.22;5040254;28;20060;-73
2022/01/06 09:13:07;;;;;;;20.23;9.40;;;;;;;13.28;34.70;97230.34;5073735;28;20047;-72
2022/01/06 09:15:35;;;;;;;21.33;10.70;;;;;;;12.99;34.79;97244.56;5057156;28;20139;-72
2022/01/06 09:18:00;;;;;;;24.07;10.87;;;;;;;12.91;34.77;97230.78;5073649;28;20503;-72
2022/01/06 09:20:26;;;;;;;27.27;11.27;;;;;;;12.89;34.90;97240.88;5056011;28;20142;-72
2022/01/06 09:22:52;;;;;;;27.67;10.33;;;;;;;12.95;34.83;97240.75;5040592;28;20054;-72
2022/01/06 09:25:18;;;;;;;22.97;9.40;;;;;;;12.92;34.74;97235.91;5057248;28;20098;-72
2022/01/06 09:27:44;;;;;;;21.33;9.37;;;;;;;12.79;34.77;97222.00;5057425;28;20415;-72
2022/01/06 09:30:10;;;;;;;23.87;9.17;;;;;;;13.27;34.63;97241.25;5056725;28;20518;-72
2022/01/06 09:32:37;;;;;;;17.40;9.83;;;;;;;12.81;34.95;97214.56;5040155;28;20039;-72
2022/01/06 09:35:03;;;;;;;20.43;9.87;;;;;;;12.89;34.97;97223.03;5039909;28;20101;-72
2022/01/06 09:37:29;;;;;;;23.50;9.40;;;;;;;12.77;34.94;97243.53;5056704;28;20040;-72
2022/01/06 09:39:55;;;;;;;26.73;11.80;;;;;;;12.87;35.22;97224.31;5089844;28;20484;-74
2022/01/06 09:42:21;;;;;;;26.33;12.70;;;;;;;13.11;34.64;97240.13;5107134;28;20051;-78
2022/01/06 09:44:50;;;;;;;23.53;10.27;;;;;;;13.37;34.56;97226.31;5075285;28;20491;-81
2022/01/06 09:47:18;;;;;;;23.17;11.80;;;;;;;13.40;34.78;97241.00;5060646;28;20087;-81
2022/01/06 09:49:44;;;;;;;34.60;13.43;;;;;;;13.04;34.97;97235.91;5042091;28;20040;-82
2022/01/06 09:52:14;;;;;;;25.13;12.63;;;;;;;13.58;34.52;97240.84;5073414;28;20047;-77
2022/01/06 09:54:41;;;;;;;30.17;12.97;;;;;;;13.10;34.86;97230.47;5040201;28;20048;-82
2022/01/06 09:57:07;;;;;;;25.77;11.53;;;;;;;13.00;34.92;97235.59;5056594;28;20052;-75
2022/01/06 09:59:35;;;;;;;30.80;12.20;;;;;;;12.69;35.15;97219.91;5089891;28;20416;-77
2022/01/06 10:02:01;;;;;;;30.13;13.27;;;;;;;12.96;35.00;97237.03;5074250;28;20036;-79
2022/01/06 10:04:28;;;;;;;21.10;11.27;;;;;;;13.13;35.16;97235.34;5087126;28;20138;-77
2022/01/06 10:07:02;;;;;;;27.07;13.30;;;;;;;13.54;34.72;97234.38;5069121;28;20035;-74
2022/01/06 10:09:29;;;;;;;24.60;12.80;;;;;;;13.15;35.01;97217.28;5084078;28;20500;-75
2022/01/06 10:11:57;;;;;;;30.40;13.40;;;;;;;13.51;34.78;97221.53;5044474;28;20499;-74
2022/01/06 10:14:31;;;;;;;23.97;11.10;;;;;;;13.26;34.55;97213.78;5066153;28;20494;-73
2022/01/06 10:16:58;;;;;;;25.40;11.67;;;;;;;13.33;34.61;97229.66;5079967;28;20069;-72
2022/01/06 10:19:25;;;;;;;23.17;11.23;;;;;;;13.03;34.75;97219.13;5095551;28;20047;-74
2022/01/06 10:21:57;;;;;;;28.70;11.90;;;;;;;13.48;34.77;97228.13;5073732;28;20056;-73
2022/01/06 10:24:26;;;;;;;31.50;12.33;;;;;;;13.43;34.70;97224.53;5093401;28;20135;-73
2022/01/06 10:27:06;;;;;;;38.13;15.57;;;;;;;13.49;34.41;97219.09;5092631;28;20044;-73
2022/01/06 10:29:50;;;;;;;33.58;15.80;;;;;;;13.46;34.50;97203.56;5075856;28;20040;-72
2022/01/06 10:32:18;;;;;;;37.37;15.47;;;;;;;13.31;34.79;97211.25;5078380;28;20047;-73
2022/01/06 10:34:52;;;;;;;27.43;14.63;;;;;;;13.49;34.82;97212.94;5080310;28;20134;-74
2022/01/06 10:37:27;;;;;;;32.73;14.57;;;;;;;13.37;34.40;97215.66;5097422;28;20534;-72
2022/01/06 10:39:57;;;;;;;31.57;14.00;;;;;;;13.24;34.84;97205.22;5080768;28;20047;-72
2022/01/06 10:42:24;;;;;;;28.87;13.43;;;;;;;13.26;34.69;97199.66;5096976;28;20039;-70
2022/01/06 10:44:53;;;;;;;29.27;14.03;;;;;;;13.14;34.19;97153.56;5079990;28;20036;-72
2022/01/06 10:47:31;;;;;;;27.80;13.77;;;;;;;13.85;33.95;97223.31;5063379;28;20039;-72
2022/01/06 10:50:36;;;;;;;28.63;13.00;;;;;;;13.90;33.93;97218.03;5079835;28;20051;-72
2022/01/06 10:53:07;;;;;;;28.13;13.77;;;;;;;13.75;34.15;97217.75;5085866;28;20044;-72
2022/01/06 10:55:36;;;;;;;30.70;13.73;;;;;;;13.49;34.51;97203.09;5063891;28;20047;-72
2022/01/06 10:58:05;;;;;;;24.57;12.27;;;;;;;13.63;34.45;97202.81;5113396;28;20046;-72
2022/01/06 11:00:43;;;;;;;28.27;13.43;;;;;;;13.75;33.98;97198.25;5075986;28;20046;-72
2022/01/06 11:03:14;;;;;;;26.87;13.27;;;;;;;13.63;34.29;97173.47;5059331;28;20044;-74
2022/01/06 11:05:42;;;;;;;31.40;12.80;;;;;;;13.53;34.50;97198.09;5092635;28;20055;-74
2022/01/06 11:08:08;;;;;;;31.00;13.40;;;;;;;13.37;34.75;97201.50;5042618;28;20146;-74
2022/01/06 11:10:37;;;;;;;26.63;13.27;;;;;;;13.26;34.42;97175.66;5061513;28;20044;-73
2022/01/06 11:13:05;;;;;;;27.47;12.47;;;;;;;13.58;34.45;97179.53;5098055;28;20055;-74
2022/01/06 11:15:31;;;;;;;20.07;12.10;;;;;;;13.45;34.49;97195.81;5063403;28;20039;-76
2022/01/06 11:18:00;;;;;;;27.63;12.00;;;;;;;13.52;34.18;97170.63;5079312;28;20039;-76
2022/01/06 11:20:27;;;;;;;23.90;11.70;;;;;;;13.73;34.11;97208.38;5093005;28;20130;-73
2022/01/06 11:22:55;;;;;;;22.67;11.30;;;;;;;13.67;34.32;97194.09;5058745;28;20082;-74
2022/01/06 11:25:37;;;;;;;27.40;12.80;;;;;;;14.18;33.69;97204.69;5059078;28;20043;-74
2022/01/06 11:28:09;;;;;;;25.03;12.20;;;;;;;13.98;34.12;97217.66;5075558;28;20149;-72
2022/01/06 11:30:51;;;;;;;26.30;12.60;;;;;;;14.13;33.83;97219.81;5076009;28;20047;-74
2022/01/06 11:33:17;;;;;;;27.87;12.03;;;;;;;13.24;34.36;97191.06;5042630;28;20043;-72